Fort Mill, South Carolina
Current Conditions -  °F | °C
As of 6:54 AM on Sunday 21 Dec 2014 (Local Time) from KUZA Reporting Station
Overcast Overcast  
Wind Chill: 41°   Ceiling: 2500
Heat Index: 41°   Visibility: 7mi
Dew Point: 36°   Wind: 0mph
Humidity: 82%   Direction: NA
Pressure: 30.26"   Gusts: NA
Location:  35.01°N, 80.94°W
Report Text: KUZA 211154Z AUTO 00000KT 7SM OVC025 05/02 A3026 RMK AO2 SLP251 70004 T00500022 10056 20050 53006
Loading
Personal Weather Stations






























Interactive Weather Map New forecast layout! Learn more

10-Day Weather Forecast

Advertisements
Track Severe Weather on mobile